Time;durP1;ratioP1;P1;durP2;ratioP2;P2;SDS_P1;SDS_P2;PMS_P1;PMS_P2;Temp;Humidity;BMP_temperature;BMP_pressure;BME280_temperature;BME280_humidity;BME280_pressure;Samples;Min_cycle;Max_cycle;Signal;HPM_P1;HPM_P2
2022/05/15 00:01:05;;;;;;;6.70;3.98;;;;;;;18.33;100.00;100682.64;1849270;75;21510;-75
2022/05/15 00:03:33;;;;;;;6.55;3.50;;;;;;;18.30;100.00;100675.31;1848798;76;21164;-75
2022/05/15 00:06:03;;;;;;;5.35;3.83;;;;;;;18.27;100.00;100670.20;1850642;77;21075;-75
2022/05/15 00:08:32;;;;;;;7.65;3.85;;;;;;;18.30;100.00;100671.41;1849514;77;21505;-75
2022/05/15 00:11:00;;;;;;;6.83;3.75;;;;;;;18.36;100.00;100664.31;1848801;76;21572;-75
2022/05/15 00:13:29;;;;;;;6.75;4.37;;;;;;;18.41;100.00;100664.58;1778460;78;21077;-75
2022/05/15 00:15:56;;;;;;;11.08;4.33;;;;;;;18.48;100.00;100659.20;1828227;78;21496;-75
2022/05/15 00:18:24;;;;;;;7.45;4.03;;;;;;;18.46;100.00;100654.05;1848389;78;21035;-75
2022/05/15 00:20:52;;;;;;;8.33;3.98;;;;;;;18.45;100.00;100649.75;1847617;78;21049;-75
2022/05/15 00:23:22;;;;;;;6.97;3.40;;;;;;;18.44;100.00;100649.33;1848189;76;21063;-75
2022/05/15 00:25:50;;;;;;;8.05;3.85;;;;;;;18.37;100.00;100640.87;1847393;76;21090;-74
2022/05/15 00:28:19;;;;;;;5.87;4.12;;;;;;;18.36;100.00;100639.61;1848912;77;21148;-75
2022/05/15 00:30:46;;;;;;;6.45;3.35;;;;;;;18.47;100.00;100638.00;1848269;78;21128;-75
2022/05/15 00:33:14;;;;;;;5.60;3.17;;;;;;;18.43;100.00;100632.89;1848399;78;21111;-75
2022/05/15 00:35:41;;;;;;;10.80;4.12;;;;;;;18.43;100.00;100631.59;1847447;78;21101;-75
2022/05/15 00:38:11;;;;;;;4.78;3.35;;;;;;;18.52;100.00;100630.89;1847692;78;21054;-75
2022/05/15 00:40:41;;;;;;;5.00;3.47;;;;;;;18.50;100.00;100625.73;1847652;78;21137;-75
2022/05/15 00:43:13;;;;;;;10.78;3.98;;;;;;;18.51;100.00;100626.13;1847443;78;21515;-75
2022/05/15 00:45:41;;;;;;;7.58;3.85;;;;;;;18.51;100.00;100626.13;1843768;78;21164;-75
2022/05/15 00:48:08;;;;;;;6.47;3.25;;;;;;;18.59;100.00;100621.14;1847283;78;21098;-75
2022/05/15 00:50:38;;;;;;;4.55;3.52;;;;;;;18.53;100.00;100623.48;1847642;78;21102;-75
2022/05/15 00:53:08;;;;;;;5.03;3.60;;;;;;;18.63;100.00;100612.34;1847382;78;21063;-75
2022/05/15 00:55:40;;;;;;;6.90;3.40;;;;;;;18.60;100.00;100609.39;1847513;78;21164;-75
2022/05/15 00:58:13;;;;;;;5.30;3.40;;;;;;;18.48;100.00;100610.61;1847352;78;21204;-75
2022/05/15 01:00:42;;;;;;;8.03;3.75;;;;;;;18.67;100.00;100598.33;1847431;77;21562;-75
2022/05/15 01:03:16;;;;;;;8.90;3.67;;;;;;;18.60;100.00;100597.68;1862308;76;21514;-75
2022/05/15 01:05:46;;;;;;;6.15;3.55;;;;;;;18.59;100.00;100598.59;1881381;75;21089;-75
2022/05/15 01:08:14;;;;;;;6.90;3.08;;;;;;;18.61;100.00;100602.45;1846631;77;21111;-75
2022/05/15 01:10:44;;;;;;;7.00;3.50;;;;;;;18.62;100.00;100600.23;1851399;76;21118;-75
2022/05/15 01:13:12;;;;;;;3.98;3.00;;;;;;;18.55;100.00;100599.12;1816957;77;21116;-75
2022/05/15 01:15:42;;;;;;;4.78;3.25;;;;;;;18.53;100.00;100598.33;1838800;76;21081;-75
2022/05/15 01:18:10;;;;;;;4.10;2.85;;;;;;;18.53;100.00;100593.56;1826315;77;21120;-75
2022/05/15 01:20:39;;;;;;;4.65;3.02;;;;;;;18.42;100.00;100605.63;1844652;76;21027;-75
2022/05/15 01:23:07;;;;;;;5.85;3.08;;;;;;;18.42;100.00;100605.63;1831407;78;21552;-75
2022/05/15 01:25:37;;;;;;;7.05;3.65;;;;;;;18.31;100.00;100600.30;1829552;77;21081;-75
2022/05/15 01:28:14;;;;;;;6.00;2.83;;;;;;;18.33;100.00;100597.65;1828615;78;21016;-75
2022/05/15 01:30:43;;;;;;;4.75;3.33;;;;;;;18.30;100.00;100592.53;1830669;78;21083;-75
2022/05/15 01:33:11;;;;;;;5.25;2.62;;;;;;;18.20;100.00;100580.27;1844912;76;21070;-75
2022/05/15 01:35:39;;;;;;;3.98;2.67;;;;;;;18.28;100.00;100575.70;1844107;76;21092;-75
2022/05/15 01:38:07;;;;;;;5.08;2.80;;;;;;;18.42;100.00;100571.38;1843363;78;21174;-75
2022/05/15 01:40:35;;;;;;;3.47;2.33;;;;;;;18.43;100.00;100561.36;1848095;76;21056;-75
2022/05/15 01:43:05;;;;;;;7.15;2.47;;;;;;;18.41;100.00;100567.52;1846216;77;21052;-75
2022/05/15 01:45:33;;;;;;;5.03;2.98;;;;;;;18.41;100.00;100570.12;1846210;76;21534;-75
2022/05/15 01:48:00;;;;;;;4.55;2.77;;;;;;;18.40;100.00;100570.99;1846403;76;21201;-75
2022/05/15 01:50:28;;;;;;;3.77;2.80;;;;;;;18.49;100.00;100568.12;1845770;76;21126;-75
2022/05/15 01:52:55;;;;;;;4.45;2.40;;;;;;;18.38;100.00;100561.97;1846468;76;21053;-75
2022/05/15 01:55:22;;;;;;;4.40;2.27;;;;;;;18.37;100.00;100558.94;1844007;76;21156;-75
2022/05/15 01:57:50;;;;;;;4.67;3.10;;;;;;;18.28;100.00;100549.70;1842735;76;21109;-75
2022/05/15 02:00:20;;;;;;;3.45;2.45;;;;;;;18.33;100.00;100547.41;1842373;76;21464;-75
2022/05/15 02:02:48;;;;;;;5.55;2.98;;;;;;;18.30;100.00;100543.98;1842892;78;21095;-75
2022/05/15 02:05:17;;;;;;;3.95;2.75;;;;;;;18.37;100.00;100545.11;1848728;76;21154;-75
2022/05/15 02:07:44;;;;;;;4.60;2.80;;;;;;;18.35;100.00;100548.19;1828967;76;21095;-75
2022/05/15 02:10:13;;;;;;;4.33;2.98;;;;;;;18.36;100.00;100537.73;1816967;77;21143;-75
2022/05/15 02:12:40;;;;;;;6.05;2.77;;;;;;;18.46;100.00;100534.83;1816532;77;21126;-75
2022/05/15 02:15:09;;;;;;;4.83;3.27;;;;;;;18.50;100.00;100526.89;1796222;78;21097;-75
2022/05/15 02:17:37;;;;;;;7.50;2.90;;;;;;;18.54;100.00;100517.22;1848426;76;21025;-75
2022/05/15 02:20:06;;;;;;;4.53;2.70;;;;;;;18.47;100.00;100515.75;1816544;77;21048;-75
2022/05/15 02:22:33;;;;;;;5.17;2.25;;;;;;;18.43;100.00;100514.54;1861660;76;21096;-74
2022/05/15 02:25:01;;;;;;;5.28;2.80;;;;;;;18.40;100.00;100512.47;1827526;76;21085;-75
2022/05/15 02:27:29;;;;;;;3.42;2.70;;;;;;;18.55;100.00;100504.16;1878309;74;21030;-74
2022/05/15 02:29:56;;;;;;;4.00;2.45;;;;;;;18.56;100.00;100492.88;1881329;76;21145;-74
2022/05/15 02:32:24;;;;;;;3.20;2.70;;;;;;;18.62;100.00;100493.56;1880390;76;21112;-74
2022/05/15 02:34:51;;;;;;;6.83;3.35;;;;;;;18.64;100.00;100508.66;1880742;75;21983;-74
2022/05/15 02:37:19;;;;;;;4.60;2.30;;;;;;;18.59;100.00;100507.97;1881037;76;21042;-74
2022/05/15 02:39:46;;;;;;;6.30;2.37;;;;;;;18.56;100.00;100496.78;1822202;76;21105;-74
2022/05/15 02:42:14;;;;;;;4.37;2.50;;;;;;;18.58;100.00;100491.50;1849161;76;21485;-74
2022/05/15 02:44:41;;;;;;;3.95;2.75;;;;;;;18.62;100.00;100496.16;1821543;76;21153;-74
2022/05/15 02:47:10;;;;;;;4.62;2.50;;;;;;;18.50;100.00;100511.28;1848011;77;21049;-74
2022/05/15 02:52:23;;;;;;;4.22;2.17;;;;;;;18.46;100.00;100501.02;1846769;76;21176;-74
2022/05/15 02:54:50;;;;;;;3.83;2.35;;;;;;;18.41;100.00;100500.72;1848441;77;21208;-74
2022/05/15 02:57:18;;;;;;;3.52;2.02;;;;;;;18.47;100.00;100495.77;1881965;74;21108;-74
2022/05/15 02:59:45;;;;;;;4.40;2.98;;;;;;;18.31;100.00;100485.86;1880913;76;21050;-74
2022/05/15 03:02:12;;;;;;;5.33;3.10;;;;;;;18.37;100.00;100473.59;1848701;76;21040;-74
2022/05/15 03:04:40;;;;;;;4.97;3.12;;;;;;;18.30;100.00;100463.81;1816309;78;21162;-74
2022/05/15 03:07:08;;;;;;;3.67;2.45;;;;;;;18.24;100.00;100470.06;1848317;76;21189;-74
2022/05/15 03:09:36;;;;;;;4.25;2.77;;;;;;;18.16;100.00;100470.77;1833469;77;21130;-74
2022/05/15 03:12:04;;;;;;;2.80;2.20;;;;;;;18.04;100.00;100459.85;1813414;77;21466;-74
2022/05/15 03:14:31;;;;;;;4.08;2.40;;;;;;;17.99;100.00;100460.90;1853841;75;21058;-74
2022/05/15 03:16:58;;;;;;;5.83;2.80;;;;;;;18.03;100.00;100454.23;1881095;75;21739;-74
2022/05/15 03:19:26;;;;;;;5.85;2.20;;;;;;;17.93;100.00;100444.58;1848932;78;21079;-74
2022/05/15 03:21:54;;;;;;;6.03;3.02;;;;;;;18.03;100.00;100442.53;1881824;74;21563;-74
2022/05/15 03:24:21;;;;;;;6.05;2.70;;;;;;;18.02;100.00;100442.58;1886506;74;21131;-75
2022/05/15 03:26:49;;;;;;;4.33;2.65;;;;;;;17.90;100.00;100438.64;1880050;74;21138;-74
2022/05/15 03:29:18;;;;;;;6.53;3.77;;;;;;;17.69;100.00;100428.03;1880864;76;21144;-74
2022/05/15 03:31:46;;;;;;;5.08;3.40;;;;;;;17.69;100.00;100420.23;1847581;76;21072;-74
2022/05/15 03:34:16;;;;;;;8.40;3.72;;;;;;;17.74;100.00;100422.67;1832534;77;21139;-74
2022/05/15 03:36:45;;;;;;;4.87;2.85;;;;;;;17.68;100.00;100411.19;1814016;77;21037;-74
2022/05/15 03:39:15;;;;;;;5.35;3.20;;;;;;;17.52;100.00;100409.06;1881661;76;21054;-74
2022/05/15 03:41:43;;;;;;;3.98;2.80;;;;;;;17.52;100.00;100417.72;1848397;76;21628;-74
2022/05/15 03:44:11;;;;;;;4.05;3.02;;;;;;;17.69;100.00;100419.38;1848421;76;21087;-74
2022/05/15 03:46:39;;;;;;;4.30;3.02;;;;;;;17.62;100.00;100410.92;1881203;76;21519;-74
2022/05/15 03:49:06;;;;;;;5.65;2.87;;;;;;;17.59;100.00;100407.98;1848582;77;21100;-74
2022/05/15 03:51:34;;;;;;;4.78;3.22;;;;;;;17.61;100.00;100405.34;1827242;77;21638;-74
2022/05/15 03:54:02;;;;;;;6.65;2.83;;;;;;;17.26;100.00;100395.97;1882404;74;21153;-75
2022/05/15 03:59:15;;;;;;;7.53;2.90;;;;;;;17.41;100.00;100379.53;1848216;76;21192;-75
2022/05/15 04:01:42;;;;;;;4.22;2.72;;;;;;;17.49;100.00;100376.69;1848699;76;21058;-75
2022/05/15 04:04:10;;;;;;;7.15;3.10;;;;;;;17.48;100.00;100369.36;1875243;74;21198;-75
2022/05/15 04:06:39;;;;;;;3.75;2.80;;;;;;;17.46;100.00;100363.79;1879167;76;21100;-75
2022/05/15 04:09:07;;;;;;;4.40;2.72;;;;;;;17.64;100.00;100361.05;1880456;75;21115;-75
2022/05/15 04:11:34;;;;;;;4.80;2.62;;;;;;;17.82;100.00;100361.38;1866864;76;21088;-75
2022/05/15 04:14:02;;;;;;;4.45;2.70;;;;;;;17.86;100.00;100366.88;1881408;74;21201;-75
2022/05/15 04:16:30;;;;;;;4.62;2.98;;;;;;;17.75;100.00;100354.24;1880868;75;21085;-75
2022/05/15 04:18:57;;;;;;;6.22;2.92;;;;;;;17.67;100.00;100349.28;1880668;75;21116;-75
2022/05/15 04:21:25;;;;;;;4.42;2.80;;;;;;;17.85;100.00;100343.92;1879961;76;21160;-75
2022/05/15 04:23:52;;;;;;;4.30;2.72;;;;;;;17.90;100.00;100352.44;1843882;78;21518;-75
2022/05/15 04:26:20;;;;;;;6.55;2.90;;;;;;;17.81;100.00;100331.94;1833847;76;21113;-75
2022/05/15 04:28:47;;;;;;;4.25;3.35;;;;;;;17.84;100.00;100325.78;1814828;77;21313;-75
2022/05/15 04:31:15;;;;;;;8.35;3.17;;;;;;;17.86;100.00;100327.90;1810992;79;21059;-75
2022/05/15 04:33:45;;;;;;;5.10;3.22;;;;;;;17.86;100.00;100320.96;1843216;78;21013;-75
2022/05/15 04:36:12;;;;;;;8.83;3.00;;;;;;;17.90;100.00;100313.90;1838019;77;21045;-75
2022/05/15 04:38:40;;;;;;;5.47;2.62;;;;;;;18.00;100.00;100307.94;1844208;78;21057;-75
2022/05/15 04:41:07;;;;;;;4.55;2.70;;;;;;;18.07;100.00;100298.17;1843559;78;21158;-75
2022/05/15 04:43:35;;;;;;;5.87;2.85;;;;;;;18.13;100.00;100286.31;1844712;76;21126;-75
2022/05/15 04:46:07;;;;;;;7.33;2.45;;;;;;;18.27;100.00;100281.45;1840417;76;21049;-75
2022/05/15 04:48:32;;;;;;;4.45;2.77;;;;;;;18.48;100.00;100297.64;1843944;78;21518;-75
2022/05/15 04:50:59;;;;;;;7.10;2.98;;;;;;;18.33;100.00;100291.25;1815505;78;21418;-75
2022/05/15 04:53:27;;;;;;;4.17;2.77;;;;;;;18.13;100.00;100301.91;1844393;78;21116;-75
2022/05/15 04:55:55;;;;;;;6.30;3.10;;;;;;;18.00;100.00;100307.50;1843458;76;21212;-75
2022/05/15 04:58:22;;;;;;;3.77;2.72;;;;;;;17.95;100.00;100311.16;1844289;76;21035;-75
2022/05/15 05:00:50;;;;;;;6.55;3.37;;;;;;;17.68;100.00;100322.39;1845854;76;21035;-75
2022/05/15 05:03:18;;;;;;;5.08;2.70;;;;;;;17.74;100.00;100336.49;1844267;76;21039;-75
2022/05/15 05:05:45;;;;;;;4.15;2.50;;;;;;;17.64;100.00;100353.27;1843926;77;21094;-75
2022/05/15 05:08:13;;;;;;;7.03;2.67;;;;;;;17.65;100.00;100349.32;1847951;78;21053;-75
2022/05/15 05:10:41;;;;;;;3.95;2.50;;;;;;;17.75;100.00;100339.95;1847684;76;21045;-75
2022/05/15 05:13:08;;;;;;;4.12;2.40;;;;;;;17.90;100.00;100348.98;1848588;76;21646;-75
2022/05/15 05:15:35;;;;;;;5.67;2.80;;;;;;;17.99;100.00;100351.73;1852519;76;21088;-75
2022/05/15 05:18:03;;;;;;;4.75;2.58;;;;;;;18.16;100.00;100362.42;1849145;77;21032;-75
2022/05/15 05:20:31;;;;;;;3.35;2.45;;;;;;;18.23;100.00;100367.44;1847745;77;21559;-75
2022/05/15 05:22:58;;;;;;;4.45;2.27;;;;;;;18.33;100.00;100367.97;1820718;77;21039;-75
2022/05/15 05:25:25;;;;;;;9.33;2.77;;;;;;;18.31;100.00;100375.81;1848462;76;21140;-75
2022/05/15 05:27:53;;;;;;;3.90;2.83;;;;;;;18.41;100.00;100384.15;1847304;76;21129;-75
2022/05/15 05:30:23;;;;;;;5.05;2.67;;;;;;;18.34;100.00;100380.89;1848239;76;21047;-75
2022/05/15 05:32:51;;;;;;;6.78;2.80;;;;;;;18.26;100.00;100385.06;1848319;76;21084;-75
2022/05/15 05:35:19;;;;;;;2.95;2.60;;;;;;;18.37;100.00;100391.66;1847679;78;21124;-75
2022/05/15 05:37:47;;;;;;;5.87;2.55;;;;;;;18.37;100.00;100394.27;1848071;78;21051;-75
2022/05/15 05:40:15;;;;;;;4.85;3.00;;;;;;;18.44;100.00;100398.33;1844168;76;21462;-75
2022/05/15 05:42:43;;;;;;;7.00;3.37;;;;;;;18.42;100.00;100400.14;1847964;77;21062;-75
2022/05/15 05:45:11;;;;;;;3.72;2.75;;;;;;;18.45;100.00;100403.95;1848102;76;21161;-76
2022/05/15 05:47:39;;;;;;;9.08;3.02;;;;;;;18.50;100.00;100402.47;1848210;77;21159;-76
2022/05/15 05:50:11;;;;;;;5.97;3.22;;;;;;;18.61;100.00;100406.02;1875636;75;21560;-76
2022/05/15 05:52:40;;;;;;;6.97;2.93;;;;;;;18.49;100.00;100408.14;1851371;76;21062;-76
2022/05/15 05:55:11;;;;;;;5.70;3.58;;;;;;;18.61;100.00;100411.22;1821246;77;21161;-76
2022/05/15 05:57:39;;;;;;;7.00;3.10;;;;;;;18.80;100.00;100416.16;1847918;76;21222;-76
2022/05/15 06:00:09;;;;;;;5.33;2.72;;;;;;;18.73;100.00;100411.22;1848719;76;21052;-76
2022/05/15 06:02:37;;;;;;;3.90;3.33;;;;;;;18.78;100.00;100403.64;1848199;76;21021;-76
2022/05/15 06:05:05;;;;;;;5.15;3.12;;;;;;;18.78;100.00;100401.05;1849341;76;21148;-77
2022/05/15 06:07:37;;;;;;;7.05;3.40;;;;;;;18.88;100.00;100391.59;1859689;75;21141;-77
2022/05/15 06:10:07;;;;;;;4.58;2.83;;;;;;;18.80;100.00;100399.25;1857818;75;21671;-76
2022/05/15 06:12:34;;;;;;;3.47;2.77;;;;;;;18.86;100.00;100398.62;1864350;75;21168;-76
2022/05/15 06:15:02;;;;;;;5.05;2.92;;;;;;;18.91;100.00;100394.95;1894226;75;21241;-76
2022/05/15 06:17:30;;;;;;;4.67;3.30;;;;;;;19.09;100.00;100404.30;1896399;74;22347;-76
2022/05/15 06:19:57;;;;;;;4.95;3.40;;;;;;;19.08;100.00;100400.87;1896322;75;21202;-76
2022/05/15 06:22:25;;;;;;;6.70;3.10;;;;;;;19.04;100.00;100404.46;1896778;74;21021;-76
2022/05/15 06:24:52;;;;;;;6.60;3.90;;;;;;;19.12;100.00;100416.34;1894780;74;21087;-76
2022/05/15 06:27:20;;;;;;;7.70;3.60;;;;;;;18.90;100.00;100391.92;1857638;74;21080;-76
2022/05/15 06:29:47;;;;;;;7.72;4.20;;;;;;;18.93;100.00;100420.92;1891813;74;21096;-76
2022/05/15 06:32:14;;;;;;;4.95;3.62;;;;;;;18.88;100.00;100428.89;1890383;74;21093;-76
2022/05/15 06:34:42;;;;;;;5.45;2.95;;;;;;;19.04;100.00;100427.89;1854299;74;21505;-76
2022/05/15 06:37:09;;;;;;;8.65;3.92;;;;;;;19.27;100.00;100430.09;1883193;74;21422;-75
2022/05/15 06:39:37;;;;;;;5.62;3.60;;;;;;;19.36;100.00;100425.00;1854569;75;21093;-76
2022/05/15 06:42:04;;;;;;;5.75;3.20;;;;;;;19.49;100.00;100428.44;1893878;74;20981;-75
2022/05/15 06:44:32;;;;;;;5.87;3.25;;;;;;;19.61;100.00;100423.22;1895302;74;21286;-76
2022/05/15 06:46:59;;;;;;;4.65;3.02;;;;;;;19.63;100.00;100431.36;1897755;74;21075;-76
2022/05/15 06:49:27;;;;;;;5.45;3.08;;;;;;;19.66;100.00;100433.82;1890610;74;21060;-75
2022/05/15 06:51:54;;;;;;;5.55;3.05;;;;;;;19.68;100.00;100436.38;1895002;74;21101;-75
2022/05/15 06:54:22;;;;;;;6.00;3.33;;;;;;;19.65;100.00;100442.56;1892603;74;21156;-76
2022/05/15 06:59:34;;;;;;;5.92;3.85;;;;;;;19.66;100.00;100449.94;1895936;74;21107;-75
2022/05/15 07:02:02;;;;;;;7.12;3.87;;;;;;;19.83;100.00;100442.28;1896296;74;21568;-76
2022/05/15 07:04:30;;;;;;;4.28;3.25;;;;;;;19.83;100.00;100442.28;1880675;74;21116;-75
2022/05/15 07:06:58;;;;;;;5.42;3.12;;;;;;;19.86;100.00;100445.22;1890086;74;21222;-75
2022/05/15 07:09:27;;;;;;;8.20;3.37;;;;;;;19.86;100.00;100442.61;1892396;75;21577;-75
2022/05/15 07:11:54;;;;;;;6.62;3.25;;;;;;;19.86;100.00;100442.61;1891358;74;21096;-75
2022/05/15 07:14:22;;;;;;;6.22;3.77;;;;;;;19.98;100.00;100445.20;1892415;75;21060;-76
2022/05/15 07:16:50;;;;;;;5.47;3.10;;;;;;;19.96;100.00;100440.04;1868612;75;21139;-77
2022/05/15 07:19:17;;;;;;;7.50;4.55;;;;;;;19.96;100.00;100440.04;1892704;74;21706;-76
2022/05/15 07:21:44;;;;;;;10.40;3.87;;;;;;;20.11;100.00;100442.50;1892875;75;21730;-76
2022/05/15 07:24:12;;;;;;;6.45;3.02;;;;;;;20.19;100.00;100451.77;1892233;75;21129;-75
2022/05/15 07:26:45;;;;;;;8.20;3.33;;;;;;;20.22;100.00;100447.27;1890885;75;21037;-76
2022/05/15 07:29:08;;;;;;;5.80;3.35;;;;;;;20.44;100.00;100445.08;1890400;75;21126;-76
2022/05/15 07:31:36;;;;;;;8.30;3.67;;;;;;;20.30;100.00;100448.27;1892120;74;21100;-76
2022/05/15 07:34:03;;;;;;;6.53;3.98;;;;;;;20.30;100.00;100448.27;1892860;75;21593;-76
2022/05/15 07:36:31;;;;;;;6.92;3.27;;;;;;;20.30;100.00;100447.41;1893166;75;21112;-76
2022/05/15 07:38:58;;;;;;;8.25;3.35;;;;;;;20.27;100.00;100438.42;1892663;75;21033;-76
2022/05/15 07:41:26;;;;;;;6.20;3.10;;;;;;;20.36;100.00;100437.55;1890893;75;21775;-76
2022/05/15 07:43:53;;;;;;;7.58;3.50;;;;;;;20.45;100.00;100420.67;1892660;74;21530;-76
2022/05/15 07:46:21;;;;;;;5.55;3.42;;;;;;;20.54;100.00;100435.09;1892558;74;21061;-76
2022/05/15 07:48:48;;;;;;;7.10;3.42;;;;;;;20.56;100.00;100438.94;1890717;74;21550;-76
2022/05/15 07:51:16;;;;;;;12.20;3.92;;;;;;;20.55;100.00;100433.34;1887806;74;21746;-77
2022/05/15 07:53:44;;;;;;;4.78;3.42;;;;;;;20.68;100.00;100436.24;1891993;75;21143;-75
2022/05/15 07:56:13;;;;;;;5.17;2.70;;;;;;;20.77;100.00;100423.25;1892256;75;21151;-76
2022/05/15 07:58:41;;;;;;;4.95;3.08;;;;;;;20.93;100.00;100428.20;1894326;74;21061;-76
2022/05/15 08:01:10;;;;;;;9.63;3.37;;;;;;;20.98;100.00;100413.17;1865586;75;21142;-77
2022/05/15 08:03:43;;;;;;;5.20;3.00;;;;;;;20.98;100.00;100413.17;1893639;75;21111;-76
2022/05/15 08:08:53;;;;;;;4.53;3.15;;;;;;;21.24;100.00;100429.87;1894777;74;21068;-75
2022/05/15 08:11:21;;;;;;;6.92;3.58;;;;;;;21.24;100.00;100416.81;1891518;75;21151;-75
2022/05/15 08:13:49;;;;;;;8.28;3.15;;;;;;;21.10;100.00;100439.66;1893155;74;21120;-75
2022/05/15 08:16:16;;;;;;;5.62;3.00;;;;;;;21.05;100.00;100446.86;1866807;75;21033;-75
2022/05/15 08:24:14;;;;;;;12.98;3.80;;;;;;;21.13;100.00;100435.16;1893507;75;21203;-75
2022/05/15 08:26:44;;;;;;;8.35;3.85;;;;;;;20.86;100.00;100430.66;1888027;75;21112;-76
2022/05/15 08:29:12;;;;;;;4.92;2.85;;;;;;;20.92;100.00;100430.88;1879486;76;21078;-76
2022/05/15 08:31:40;;;;;;;6.55;3.08;;;;;;;20.95;100.00;100426.84;1848931;77;21053;-75
2022/05/15 08:34:11;;;;;;;7.85;3.05;;;;;;;20.64;100.00;100410.75;1857075;77;21160;-75
2022/05/15 08:36:41;;;;;;;7.15;3.33;;;;;;;20.64;100.00;100410.75;1818509;77;21222;-75
2022/05/15 08:39:08;;;;;;;7.90;3.00;;;;;;;20.59;100.00;100428.38;1848722;76;21169;-75
2022/05/15 08:42:07;;;;;;;8.78;3.45;;;;;;;20.50;100.00;100426.53;1844541;77;21081;-74
2022/05/15 08:44:38;;;;;;;12.60;3.45;;;;;;;20.22;100.00;100415.14;1849076;76;21059;-76
2022/05/15 08:47:20;;;;;;;7.55;3.27;;;;;;;20.12;100.00;100421.19;1848858;77;21029;-76
2022/05/15 08:49:57;;;;;;;10.48;4.53;;;;;;;20.14;100.00;100416.74;1872444;76;21072;-77
2022/05/15 08:52:42;;;;;;;4.53;2.90;;;;;;;19.98;100.00;100425.64;1893385;74;21046;-77
2022/05/15 08:55:12;;;;;;;5.97;3.00;;;;;;;19.54;100.00;100415.63;1856190;76;21200;-76
2022/05/15 08:57:43;;;;;;;8.88;4.08;;;;;;;19.27;100.00;100414.47;1893582;74;21360;-77
2022/05/15 09:00:13;;;;;;;8.30;3.80;;;;;;;19.13;100.00;100419.38;1849067;76;21108;-78
2022/05/15 09:02:42;;;;;;;5.60;3.25;;;;;;;19.21;100.00;100425.97;1818014;77;21031;-77
2022/05/15 09:05:11;;;;;;;9.13;3.87;;;;;;;19.17;100.00;100420.95;1849165;76;21670;-76
2022/05/15 09:08:04;;;;;;;8.88;4.80;;;;;;;19.12;100.00;100429.37;1851080;76;21108;-77
2022/05/15 09:10:37;;;;;;;6.85;3.65;;;;;;;19.04;100.00;100421.83;1854702;76;21056;-77
2022/05/15 09:13:13;;;;;;;5.22;3.47;;;;;;;19.19;100.00;100439.52;1854899;76;21027;-77
2022/05/15 09:15:43;;;;;;;6.92;3.83;;;;;;;19.21;100.00;100445.97;1804727;78;21101;-77
2022/05/15 09:18:14;;;;;;;7.70;3.67;;;;;;;19.45;100.00;100458.98;1807367;77;21023;-78
2022/05/15 09:20:50;;;;;;;6.75;3.27;;;;;;;19.68;100.00;100462.44;1847717;77;21021;-78
2022/05/15 09:23:29;;;;;;;5.47;3.05;;;;;;;19.81;100.00;100461.06;1846226;77;21154;-78
2022/05/15 09:25:59;;;;;;;8.00;3.30;;;;;;;19.88;100.00;100464.27;1841740;77;21265;-78
2022/05/15 09:28:29;;;;;;;7.80;4.37;;;;;;;19.97;100.00;100461.76;1898280;74;21078;-78
2022/05/15 09:30:59;;;;;;;4.25;3.33;;;;;;;20.24;100.00;100472.84;1902980;74;21027;-78
2022/05/15 09:33:38;;;;;;;5.55;3.62;;;;;;;20.21;100.00;100469.52;1898150;75;21085;-78
2022/05/15 09:36:25;;;;;;;5.78;3.62;;;;;;;20.65;100.00;100477.69;1902103;75;21116;-78
2022/05/15 09:39:12;;;;;;;6.47;3.85;;;;;;;20.97;100.00;100472.85;1871824;75;21458;-77
2022/05/15 09:44:31;;;;;;;5.87;3.80;;;;;;;21.20;100.00;100464.89;1899656;75;21065;-77
2022/05/15 09:47:04;;;;;;;9.08;4.33;;;;;;;21.19;100.00;100454.06;1898340;75;21217;-77
2022/05/15 09:49:35;;;;;;;5.25;3.80;;;;;;;21.19;100.00;100454.06;1902170;74;21519;-77
2022/05/15 09:52:12;;;;;;;8.35;4.03;;;;;;;21.35;100.00;100451.13;1900331;75;21044;-77
2022/05/15 09:54:43;;;;;;;6.40;3.85;;;;;;;21.16;100.00;100453.75;1900223;75;21750;-78
2022/05/15 09:57:17;;;;;;;7.35;4.05;;;;;;;20.99;100.00;100454.50;1901077;74;21068;-77
2022/05/15 09:59:59;;;;;;;11.10;6.42;;;;;;;20.85;100.00;100450.72;1902948;75;21106;-78
2022/05/15 10:02:42;;;;;;;5.17;3.60;;;;;;;20.85;100.00;100456.39;1899151;74;21111;-77
2022/05/15 10:05:21;;;;;;;7.37;4.40;;;;;;;20.87;100.00;100451.48;1897217;75;21138;-78
2022/05/15 10:08:09;;;;;;;5.90;3.65;;;;;;;20.87;100.00;100451.48;1899170;74;21112;-78
2022/05/15 10:10:44;;;;;;;7.70;4.90;;;;;;;20.96;100.00;100455.94;1869314;75;21178;-79
2022/05/15 10:13:34;;;;;;;10.23;4.35;;;;;;;20.82;100.00;100451.30;1910944;74;21170;-76
2022/05/15 10:16:07;;;;;;;10.63;4.65;;;;;;;21.10;100.00;100452.27;1907721;74;21592;-77
2022/05/15 10:18:47;;;;;;;7.58;4.62;;;;;;;20.90;100.00;100456.23;1905449;73;21552;-76
2022/05/15 10:21:16;;;;;;;8.65;4.90;;;;;;;20.91;100.00;100460.53;1888620;74;21134;-77
2022/05/15 10:23:46;;;;;;;7.35;5.10;;;;;;;20.98;100.00;100464.09;1904740;74;21102;-77
2022/05/15 10:26:20;;;;;;;10.32;5.25;;;;;;;21.16;100.00;100464.65;1904241;74;21103;-80
2022/05/15 10:29:02;;;;;;;6.47;3.98;;;;;;;21.09;100.00;100464.08;1899686;74;21145;-79
2022/05/15 10:31:32;;;;;;;8.08;4.03;;;;;;;21.13;100.00;100466.95;1909540;73;21130;-79
2022/05/15 10:34:04;;;;;;;9.80;4.78;;;;;;;20.97;100.00;100456.36;1905099;74;21111;-79
2022/05/15 10:36:50;;;;;;;8.80;4.33;;;;;;;21.06;100.00;100457.23;1906905;73;21136;-79
2022/05/15 10:39:45;;;;;;;9.23;4.72;;;;;;;21.16;100.00;100454.20;1908384;74;21822;-78
2022/05/15 10:42:30;;;;;;;10.20;4.78;;;;;;;20.93;100.00;100443.05;1908376;74;21117;-79
2022/05/15 10:45:04;;;;;;;16.97;4.78;;;;;;;21.45;100.00;100442.41;1904421;74;21134;-79
2022/05/15 10:48:03;;;;;;;6.92;4.00;;;;;;;21.90;100.00;100431.16;1905443;74;21205;-79
2022/05/15 10:50:52;;;;;;;9.88;5.00;;;;;;;22.08;100.00;100442.94;1909839;74;21051;-78
2022/05/15 10:59:49;;;;;;;10.80;4.80;;;;;;;22.27;100.00;100428.94;1880617;75;21069;-78
2022/05/15 11:02:37;;;;;;;10.20;4.50;;;;;;;22.54;100.00;100427.15;1880907;74;21017;-78
2022/05/15 11:05:22;;;;;;;6.33;4.17;;;;;;;22.71;100.00;100430.69;1880773;74;21073;-78
2022/05/15 11:08:23;;;;;;;9.73;4.80;;;;;;;21.63;100.00;100431.53;1881004;74;21185;-79
2022/05/15 11:11:18;;;;;;;9.63;5.58;;;;;;;21.48;100.00;100438.80;1829424;76;21086;-80
2022/05/15 11:14:03;;;;;;;10.40;4.67;;;;;;;21.33;100.00;100439.92;1818200;77;21100;-79
2022/05/15 11:16:41;;;;;;;10.65;4.35;;;;;;;21.38;100.00;100432.70;1856454;76;21056;-78
2022/05/15 11:19:31;;;;;;;7.70;5.05;;;;;;;21.38;100.00;100432.70;1894003;76;21066;-79
2022/05/15 11:22:14;;;;;;;8.75;4.30;;;;;;;21.23;100.00;100430.36;1848829;77;21021;-79
2022/05/15 11:24:47;;;;;;;9.53;5.33;;;;;;;21.18;100.00;100429.70;1893050;74;21076;-79
2022/05/15 11:27:37;;;;;;;9.40;5.10;;;;;;;20.81;100.00;100436.11;1893378;74;21060;-79
2022/05/15 11:30:10;;;;;;;11.22;5.50;;;;;;;20.58;100.00;100433.18;1893705;74;21489;-79
2022/05/15 11:32:44;;;;;;;8.05;5.00;;;;;;;20.82;100.00;100433.02;1854825;76;21607;-79
2022/05/15 11:35:23;;;;;;;9.00;5.08;;;;;;;20.66;100.00;100425.03;1889324;75;21054;-79
2022/05/15 11:38:12;;;;;;;14.53;5.62;;;;;;;20.72;100.00;100431.27;1848999;77;21047;-79
2022/05/15 11:40:48;;;;;;;10.48;5.30;;;;;;;20.43;100.00;100421.20;1894041;74;21023;-78
2022/05/15 11:43:31;;;;;;;7.12;5.00;;;;;;;20.76;100.00;100422.39;1893633;74;21506;-78
2022/05/15 11:46:11;;;;;;;9.23;5.03;;;;;;;20.66;100.00;100421.13;1849037;77;21082;-78
2022/05/15 11:48:46;;;;;;;7.67;4.78;;;;;;;20.66;100.00;100421.13;1849214;77;21070;-78
2022/05/15 11:51:17;;;;;;;12.37;5.87;;;;;;;20.39;100.00;100429.22;1818195;79;21077;-78
2022/05/15 11:54:00;;;;;;;8.55;5.00;;;;;;;20.41;100.00;100424.33;1848935;76;21171;-78
2022/05/15 11:56:30;;;;;;;9.58;5.00;;;;;;;20.21;100.00;100387.37;1873739;74;21065;-78
2022/05/15 11:59:06;;;;;;;8.85;5.03;;;;;;;20.21;100.00;100387.37;1893470;74;21065;-79